sensor_id;sensor_type;location;lat;lon;timestamp;P1;durP1;ratioP1;P2;durP2;ratioP2
32295;SDS011;18781;51.550;5.418;2023-12-20T00:00:54;19.52;;;5.13;;
32295;SDS011;18781;51.550;5.418;2023-12-20T00:03:19;24.00;;;4.50;;
32295;SDS011;18781;51.550;5.418;2023-12-20T00:05:45;15.35;;;3.63;;
32295;SDS011;18781;51.550;5.418;2023-12-20T00:08:12;22.13;;;3.70;;
32295;SDS011;18781;51.550;5.418;2023-12-20T00:10:38;17.08;;;3.72;;
32295;SDS011;18781;51.550;5.418;2023-12-20T00:13:03;16.42;;;3.75;;
32295;SDS011;18781;51.550;5.418;2023-12-20T00:15:29;20.50;;;3.65;;
32295;SDS011;18781;51.550;5.418;2023-12-20T00:17:54;16.10;;;3.78;;
32295;SDS011;18781;51.550;5.418;2023-12-20T00:20:20;22.98;;;4.10;;
32295;SDS011;18781;51.550;5.418;2023-12-20T00:22:46;23.75;;;3.85;;
32295;SDS011;18781;51.550;5.418;2023-12-20T00:25:12;14.23;;;3.30;;
32295;SDS011;18781;51.550;5.418;2023-12-20T00:27:37;21.00;;;3.60;;
32295;SDS011;18781;51.550;5.418;2023-12-20T00:30:03;17.27;;;3.45;;
32295;SDS011;18781;51.550;5.418;2023-12-20T00:32:29;15.20;;;3.78;;
32295;SDS011;18781;51.550;5.418;2023-12-20T00:34:54;18.88;;;3.55;;
32295;SDS011;18781;51.550;5.418;2023-12-20T00:37:20;24.77;;;3.50;;
32295;SDS011;18781;51.550;5.418;2023-12-20T00:39:46;23.20;;;3.20;;
32295;SDS011;18781;51.550;5.418;2023-12-20T00:42:12;12.80;;;3.25;;
32295;SDS011;18781;51.550;5.418;2023-12-20T00:44:37;17.10;;;3.30;;
32295;SDS011;18781;51.550;5.418;2023-12-20T00:47:03;18.35;;;3.78;;
32295;SDS011;18781;51.550;5.418;2023-12-20T00:49:29;18.13;;;4.25;;
32295;SDS011;18781;51.550;5.418;2023-12-20T00:51:54;18.05;;;3.17;;
32295;SDS011;18781;51.550;5.418;2023-12-20T00:54:20;16.77;;;3.40;;
32295;SDS011;18781;51.550;5.418;2023-12-20T00:56:45;25.10;;;3.08;;
32295;SDS011;18781;51.550;5.418;2023-12-20T00:59:11;20.90;;;3.97;;
32295;SDS011;18781;51.550;5.418;2023-12-20T01:01:37;19.15;;;3.13;;
32295;SDS011;18781;51.550;5.418;2023-12-20T01:04:03;18.25;;;3.10;;
32295;SDS011;18781;51.550;5.418;2023-12-20T01:06:29;18.58;;;2.78;;
32295;SDS011;18781;51.550;5.418;2023-12-20T01:08:54;15.50;;;3.50;;
32295;SDS011;18781;51.550;5.418;2023-12-20T01:11:20;17.85;;;3.28;;
32295;SDS011;18781;51.550;5.418;2023-12-20T01:13:45;21.63;;;3.40;;
32295;SDS011;18781;51.550;5.418;2023-12-20T01:16:11;24.83;;;3.78;;
32295;SDS011;18781;51.550;5.418;2023-12-20T01:18:37;16.90;;;2.63;;
32295;SDS011;18781;51.550;5.418;2023-12-20T01:21:03;19.20;;;2.80;;
32295;SDS011;18781;51.550;5.418;2023-12-20T01:23:29;16.02;;;3.10;;
32295;SDS011;18781;51.550;5.418;2023-12-20T01:25:55;25.17;;;3.55;;
32295;SDS011;18781;51.550;5.418;2023-12-20T01:28:21;16.13;;;3.05;;
32295;SDS011;18781;51.550;5.418;2023-12-20T01:30:47;15.95;;;3.22;;
32295;SDS011;18781;51.550;5.418;2023-12-20T01:33:13;27.52;;;3.17;;
32295;SDS011;18781;51.550;5.418;2023-12-20T01:35:38;16.80;;;2.88;;
32295;SDS011;18781;51.550;5.418;2023-12-20T01:38:04;23.05;;;2.83;;
32295;SDS011;18781;51.550;5.418;2023-12-20T01:40:30;19.60;;;3.08;;
32295;SDS011;18781;51.550;5.418;2023-12-20T01:42:59;25.10;;;3.75;;
32295;SDS011;18781;51.550;5.418;2023-12-20T01:45:25;25.05;;;3.20;;
32295;SDS011;18781;51.550;5.418;2023-12-20T01:47:50;24.88;;;3.45;;
32295;SDS011;18781;51.550;5.418;2023-12-20T01:50:17;24.08;;;3.42;;
32295;SDS011;18781;51.550;5.418;2023-12-20T01:52:43;19.65;;;2.90;;
32295;SDS011;18781;51.550;5.418;2023-12-20T01:55:10;24.30;;;3.45;;
32295;SDS011;18781;51.550;5.418;2023-12-20T01:57:40;22.27;;;2.80;;
32295;SDS011;18781;51.550;5.418;2023-12-20T02:00:06;20.15;;;2.92;;
32295;SDS011;18781;51.550;5.418;2023-12-20T02:02:34;21.50;;;3.25;;
32295;SDS011;18781;51.550;5.418;2023-12-20T02:05:05;18.92;;;3.83;;
32295;SDS011;18781;51.550;5.418;2023-12-20T02:07:31;18.70;;;3.15;;
32295;SDS011;18781;51.550;5.418;2023-12-20T02:09:57;14.15;;;3.05;;
32295;SDS011;18781;51.550;5.418;2023-12-20T02:12:22;18.70;;;3.15;;
32295;SDS011;18781;51.550;5.418;2023-12-20T02:14:48;24.05;;;3.38;;
32295;SDS011;18781;51.550;5.418;2023-12-20T02:17:15;27.08;;;3.35;;
32295;SDS011;18781;51.550;5.418;2023-12-20T02:19:41;23.95;;;3.42;;
32295;SDS011;18781;51.550;5.418;2023-12-20T02:22:08;20.08;;;3.78;;
32295;SDS011;18781;51.550;5.418;2023-12-20T02:24:35;22.73;;;3.30;;
32295;SDS011;18781;51.550;5.418;2023-12-20T02:27:01;31.77;;;3.85;;
32295;SDS011;18781;51.550;5.418;2023-12-20T02:29:27;21.13;;;3.28;;
32295;SDS011;18781;51.550;5.418;2023-12-20T02:31:52;21.30;;;4.13;;
32295;SDS011;18781;51.550;5.418;2023-12-20T02:34:18;21.25;;;3.88;;
32295;SDS011;18781;51.550;5.418;2023-12-20T02:36:43;20.02;;;3.60;;
32295;SDS011;18781;51.550;5.418;2023-12-20T02:39:09;15.43;;;3.35;;
32295;SDS011;18781;51.550;5.418;2023-12-20T02:41:35;19.90;;;3.15;;
32295;SDS011;18781;51.550;5.418;2023-12-20T02:44:01;11.68;;;3.42;;
32295;SDS011;18781;51.550;5.418;2023-12-20T02:46:27;20.85;;;3.85;;
32295;SDS011;18781;51.550;5.418;2023-12-20T02:48:52;26.35;;;4.07;;
32295;SDS011;18781;51.550;5.418;2023-12-20T02:51:18;24.45;;;3.50;;
32295;SDS011;18781;51.550;5.418;2023-12-20T02:53:43;21.77;;;3.58;;
32295;SDS011;18781;51.550;5.418;2023-12-20T02:56:09;21.08;;;4.00;;
32295;SDS011;18781;51.550;5.418;2023-12-20T02:58:35;17.10;;;3.53;;
32295;SDS011;18781;51.550;5.418;2023-12-20T03:01:00;30.00;;;4.28;;
32295;SDS011;18781;51.550;5.418;2023-12-20T03:03:26;26.02;;;3.85;;
32295;SDS011;18781;51.550;5.418;2023-12-20T03:05:52;27.38;;;3.53;;
32295;SDS011;18781;51.550;5.418;2023-12-20T03:08:17;27.30;;;4.18;;
32295;SDS011;18781;51.550;5.418;2023-12-20T03:10:43;20.20;;;3.53;;
32295;SDS011;18781;51.550;5.418;2023-12-20T03:13:09;21.30;;;3.67;;
32295;SDS011;18781;51.550;5.418;2023-12-20T03:15:35;14.98;;;3.47;;
32295;SDS011;18781;51.550;5.418;2023-12-20T03:18:01;28.77;;;3.72;;
32295;SDS011;18781;51.550;5.418;2023-12-20T03:20:26;24.38;;;3.63;;
32295;SDS011;18781;51.550;5.418;2023-12-20T03:22:52;24.63;;;3.67;;
32295;SDS011;18781;51.550;5.418;2023-12-20T03:25:18;21.88;;;4.40;;
32295;SDS011;18781;51.550;5.418;2023-12-20T03:27:44;30.45;;;4.18;;
32295;SDS011;18781;51.550;5.418;2023-12-20T03:30:09;21.95;;;4.00;;
32295;SDS011;18781;51.550;5.418;2023-12-20T03:32:35;25.83;;;3.83;;
32295;SDS011;18781;51.550;5.418;2023-12-20T03:35:02;27.42;;;4.70;;
32295;SDS011;18781;51.550;5.418;2023-12-20T03:37:28;25.88;;;4.13;;
32295;SDS011;18781;51.550;5.418;2023-12-20T03:39:54;33.72;;;5.13;;
32295;SDS011;18781;51.550;5.418;2023-12-20T03:42:19;22.20;;;4.03;;
32295;SDS011;18781;51.550;5.418;2023-12-20T03:44:45;21.67;;;3.88;;
32295;SDS011;18781;51.550;5.418;2023-12-20T03:47:11;25.52;;;4.32;;
32295;SDS011;18781;51.550;5.418;2023-12-20T03:49:36;23.92;;;3.97;;
32295;SDS011;18781;51.550;5.418;2023-12-20T03:52:03;22.50;;;3.60;;
32295;SDS011;18781;51.550;5.418;2023-12-20T03:54:29;23.00;;;4.03;;
32295;SDS011;18781;51.550;5.418;2023-12-20T03:56:55;24.15;;;4.15;;
32295;SDS011;18781;51.550;5.418;2023-12-20T03:59:21;34.38;;;4.97;;
32295;SDS011;18781;51.550;5.418;2023-12-20T04:01:46;31.35;;;4.40;;
32295;SDS011;18781;51.550;5.418;2023-12-20T04:04:13;26.90;;;4.45;;
32295;SDS011;18781;51.550;5.418;2023-12-20T04:06:38;25.98;;;4.45;;
32295;SDS011;18781;51.550;5.418;2023-12-20T04:09:04;22.85;;;3.83;;
32295;SDS011;18781;51.550;5.418;2023-12-20T04:11:30;27.90;;;4.35;;
32295;SDS011;18781;51.550;5.418;2023-12-20T04:13:56;31.92;;;5.32;;
32295;SDS011;18781;51.550;5.418;2023-12-20T04:16:22;28.45;;;4.05;;
32295;SDS011;18781;51.550;5.418;2023-12-20T04:18:47;25.42;;;4.30;;
32295;SDS011;18781;51.550;5.418;2023-12-20T04:21:13;26.48;;;4.20;;
32295;SDS011;18781;51.550;5.418;2023-12-20T04:23:38;25.35;;;4.30;;
32295;SDS011;18781;51.550;5.418;2023-12-20T04:26:04;20.60;;;4.53;;
32295;SDS011;18781;51.550;5.418;2023-12-20T04:28:30;27.55;;;4.22;;
32295;SDS011;18781;51.550;5.418;2023-12-20T04:30:55;26.88;;;4.05;;
32295;SDS011;18781;51.550;5.418;2023-12-20T04:33:21;23.67;;;4.50;;
32295;SDS011;18781;51.550;5.418;2023-12-20T04:35:47;33.78;;;4.65;;
32295;SDS011;18781;51.550;5.418;2023-12-20T04:38:13;28.33;;;4.13;;
32295;SDS011;18781;51.550;5.418;2023-12-20T04:40:39;32.28;;;4.43;;
32295;SDS011;18781;51.550;5.418;2023-12-20T04:43:06;26.08;;;4.22;;
32295;SDS011;18781;51.550;5.418;2023-12-20T04:45:32;29.33;;;4.00;;
32295;SDS011;18781;51.550;5.418;2023-12-20T04:47:58;35.63;;;5.50;;
32295;SDS011;18781;51.550;5.418;2023-12-20T04:50:23;24.98;;;4.60;;
32295;SDS011;18781;51.550;5.418;2023-12-20T04:52:49;32.25;;;4.85;;
32295;SDS011;18781;51.550;5.418;2023-12-20T04:55:15;33.63;;;4.63;;
32295;SDS011;18781;51.550;5.418;2023-12-20T04:57:41;26.00;;;4.45;;
32295;SDS011;18781;51.550;5.418;2023-12-20T05:00:08;31.92;;;4.90;;
32295;SDS011;18781;51.550;5.418;2023-12-20T05:02:36;31.67;;;4.85;;
32295;SDS011;18781;51.550;5.418;2023-12-20T05:05:02;20.80;;;4.28;;
32295;SDS011;18781;51.550;5.418;2023-12-20T05:07:28;31.80;;;4.10;;
32295;SDS011;18781;51.550;5.418;2023-12-20T05:09:53;26.23;;;3.88;;
32295;SDS011;18781;51.550;5.418;2023-12-20T05:12:19;29.00;;;4.78;;
32295;SDS011;18781;51.550;5.418;2023-12-20T05:14:45;34.92;;;4.95;;
32295;SDS011;18781;51.550;5.418;2023-12-20T05:17:11;27.70;;;4.50;;
32295;SDS011;18781;51.550;5.418;2023-12-20T05:19:37;18.95;;;4.10;;
32295;SDS011;18781;51.550;5.418;2023-12-20T05:22:02;22.80;;;3.50;;
32295;SDS011;18781;51.550;5.418;2023-12-20T05:24:28;31.17;;;4.15;;
32295;SDS011;18781;51.550;5.418;2023-12-20T05:26:54;31.88;;;4.47;;
32295;SDS011;18781;51.550;5.418;2023-12-20T05:29:20;23.52;;;3.97;;
32295;SDS011;18781;51.550;5.418;2023-12-20T05:31:47;29.00;;;4.88;;
32295;SDS011;18781;51.550;5.418;2023-12-20T05:34:13;31.80;;;5.03;;
32295;SDS011;18781;51.550;5.418;2023-12-20T05:36:39;26.42;;;4.90;;
32295;SDS011;18781;51.550;5.418;2023-12-20T05:39:04;28.63;;;4.05;;
32295;SDS011;18781;51.550;5.418;2023-12-20T05:41:30;28.55;;;4.47;;
32295;SDS011;18781;51.550;5.418;2023-12-20T05:43:56;32.72;;;4.40;;
32295;SDS011;18781;51.550;5.418;2023-12-20T05:46:23;35.75;;;4.40;;
32295;SDS011;18781;51.550;5.418;2023-12-20T05:48:49;32.45;;;5.18;;
32295;SDS011;18781;51.550;5.418;2023-12-20T05:51:16;33.53;;;5.38;;
32295;SDS011;18781;51.550;5.418;2023-12-20T05:53:42;25.27;;;4.75;;
32295;SDS011;18781;51.550;5.418;2023-12-20T05:56:09;39.90;;;5.30;;
32295;SDS011;18781;51.550;5.418;2023-12-20T05:58:34;25.83;;;4.93;;
32295;SDS011;18781;51.550;5.418;2023-12-20T06:01:00;26.88;;;4.70;;
32295;SDS011;18781;51.550;5.418;2023-12-20T06:03:28;28.27;;;4.10;;
32295;SDS011;18781;51.550;5.418;2023-12-20T06:05:54;44.40;;;5.03;;
32295;SDS011;18781;51.550;5.418;2023-12-20T06:08:19;22.30;;;4.32;;
32295;SDS011;18781;51.550;5.418;2023-12-20T06:10:45;33.13;;;5.20;;
32295;SDS011;18781;51.550;5.418;2023-12-20T06:13:11;23.67;;;3.70;;
32295;SDS011;18781;51.550;5.418;2023-12-20T06:15:38;24.98;;;4.07;;
32295;SDS011;18781;51.550;5.418;2023-12-20T06:18:03;23.27;;;4.47;;
32295;SDS011;18781;51.550;5.418;2023-12-20T06:20:29;31.02;;;5.28;;
32295;SDS011;18781;51.550;5.418;2023-12-20T06:22:55;30.00;;;4.57;;
32295;SDS011;18781;51.550;5.418;2023-12-20T06:25:20;27.85;;;4.50;;
32295;SDS011;18781;51.550;5.418;2023-12-20T06:27:46;28.88;;;4.45;;
32295;SDS011;18781;51.550;5.418;2023-12-20T06:30:12;28.75;;;4.13;;
32295;SDS011;18781;51.550;5.418;2023-12-20T06:32:37;24.25;;;4.90;;
32295;SDS011;18781;51.550;5.418;2023-12-20T06:35:04;25.23;;;4.72;;
32295;SDS011;18781;51.550;5.418;2023-12-20T06:37:30;36.38;;;4.85;;
32295;SDS011;18781;51.550;5.418;2023-12-20T06:39:56;36.75;;;5.30;;
32295;SDS011;18781;51.550;5.418;2023-12-20T06:42:22;22.40;;;4.50;;
32295;SDS011;18781;51.550;5.418;2023-12-20T06:44:47;32.67;;;5.32;;
32295;SDS011;18781;51.550;5.418;2023-12-20T06:47:13;28.98;;;4.90;;
32295;SDS011;18781;51.550;5.418;2023-12-20T06:49:39;29.13;;;5.43;;
32295;SDS011;18781;51.550;5.418;2023-12-20T06:52:05;26.95;;;5.35;;
32295;SDS011;18781;51.550;5.418;2023-12-20T06:54:31;37.60;;;6.18;;
32295;SDS011;18781;51.550;5.418;2023-12-20T06:56:59;33.65;;;5.78;;
32295;SDS011;18781;51.550;5.418;2023-12-20T06:59:25;28.38;;;5.55;;
32295;SDS011;18781;51.550;5.418;2023-12-20T07:01:51;34.88;;;5.95;;
32295;SDS011;18781;51.550;5.418;2023-12-20T07:04:17;26.27;;;5.50;;
32295;SDS011;18781;51.550;5.418;2023-12-20T07:06:47;41.05;;;7.63;;
32295;SDS011;18781;51.550;5.418;2023-12-20T07:09:13;35.15;;;5.95;;
32295;SDS011;18781;51.550;5.418;2023-12-20T07:11:39;33.00;;;6.03;;
32295;SDS011;18781;51.550;5.418;2023-12-20T07:14:05;33.83;;;5.70;;
32295;SDS011;18781;51.550;5.418;2023-12-20T07:16:30;25.48;;;5.65;;
32295;SDS011;18781;51.550;5.418;2023-12-20T07:18:57;30.40;;;6.13;;
32295;SDS011;18781;51.550;5.418;2023-12-20T07:21:22;39.15;;;6.47;;
32295;SDS011;18781;51.550;5.418;2023-12-20T07:23:48;35.90;;;6.50;;
32295;SDS011;18781;51.550;5.418;2023-12-20T07:26:15;35.88;;;5.63;;
32295;SDS011;18781;51.550;5.418;2023-12-20T07:28:42;29.00;;;5.85;;
32295;SDS011;18781;51.550;5.418;2023-12-20T07:31:08;32.20;;;5.80;;
32295;SDS011;18781;51.550;5.418;2023-12-20T07:33:33;27.63;;;5.90;;
32295;SDS011;18781;51.550;5.418;2023-12-20T07:35:59;33.80;;;6.53;;
32295;SDS011;18781;51.550;5.418;2023-12-20T07:38:25;26.45;;;6.35;;
32295;SDS011;18781;51.550;5.418;2023-12-20T07:40:51;34.47;;;5.90;;
32295;SDS011;18781;51.550;5.418;2023-12-20T07:43:17;23.80;;;6.00;;
32295;SDS011;18781;51.550;5.418;2023-12-20T07:45:42;34.50;;;6.18;;
32295;SDS011;18781;51.550;5.418;2023-12-20T07:48:08;30.73;;;4.95;;
32295;SDS011;18781;51.550;5.418;2023-12-20T07:50:34;35.65;;;6.28;;
32295;SDS011;18781;51.550;5.418;2023-12-20T07:52:59;31.70;;;5.80;;
32295;SDS011;18781;51.550;5.418;2023-12-20T07:55:26;36.60;;;5.63;;
32295;SDS011;18781;51.550;5.418;2023-12-20T07:57:52;29.00;;;4.80;;
32295;SDS011;18781;51.550;5.418;2023-12-20T08:00:18;29.05;;;5.32;;
32295;SDS011;18781;51.550;5.418;2023-12-20T08:02:44;29.52;;;5.50;;
32295;SDS011;18781;51.550;5.418;2023-12-20T08:05:10;37.63;;;5.50;;
32295;SDS011;18781;51.550;5.418;2023-12-20T08:07:35;28.42;;;5.60;;
32295;SDS011;18781;51.550;5.418;2023-12-20T08:10:01;33.10;;;5.68;;
32295;SDS011;18781;51.550;5.418;2023-12-20T08:12:27;30.20;;;4.90;;
32295;SDS011;18781;51.550;5.418;2023-12-20T08:14:53;28.40;;;4.82;;
32295;SDS011;18781;51.550;5.418;2023-12-20T08:17:19;33.13;;;6.30;;
32295;SDS011;18781;51.550;5.418;2023-12-20T08:19:45;32.70;;;5.55;;
32295;SDS011;18781;51.550;5.418;2023-12-20T08:22:11;31.80;;;5.45;;
32295;SDS011;18781;51.550;5.418;2023-12-20T08:24:36;27.27;;;4.63;;
32295;SDS011;18781;51.550;5.418;2023-12-20T08:27:03;21.88;;;4.32;;
32295;SDS011;18781;51.550;5.418;2023-12-20T08:29:29;21.00;;;4.25;;
32295;SDS011;18781;51.550;5.418;2023-12-20T08:31:55;36.92;;;5.20;;
32295;SDS011;18781;51.550;5.418;2023-12-20T08:34:21;28.65;;;4.80;;
32295;SDS011;18781;51.550;5.418;2023-12-20T08:36:48;36.00;;;6.18;;
32295;SDS011;18781;51.550;5.418;2023-12-20T08:39:15;30.75;;;6.53;;
32295;SDS011;18781;51.550;5.418;2023-12-20T08:41:40;30.08;;;5.00;;
32295;SDS011;18781;51.550;5.418;2023-12-20T08:44:06;26.85;;;5.40;;
32295;SDS011;18781;51.550;5.418;2023-12-20T08:46:32;30.45;;;5.28;;
32295;SDS011;18781;51.550;5.418;2023-12-20T08:48:57;28.85;;;4.93;;
32295;SDS011;18781;51.550;5.418;2023-12-20T08:51:23;28.50;;;5.72;;
32295;SDS011;18781;51.550;5.418;2023-12-20T08:53:50;30.17;;;5.47;;
32295;SDS011;18781;51.550;5.418;2023-12-20T08:56:16;25.52;;;5.30;;
32295;SDS011;18781;51.550;5.418;2023-12-20T08:58:43;36.13;;;5.55;;
32295;SDS011;18781;51.550;5.418;2023-12-20T09:01:09;26.80;;;4.65;;
32295;SDS011;18781;51.550;5.418;2023-12-20T09:03:35;26.00;;;5.97;;
32295;SDS011;18781;51.550;5.418;2023-12-20T09:06:00;30.63;;;5.60;;
32295;SDS011;18781;51.550;5.418;2023-12-20T09:08:26;36.13;;;6.45;;
32295;SDS011;18781;51.550;5.418;2023-12-20T09:10:51;32.47;;;5.38;;
32295;SDS011;18781;51.550;5.418;2023-12-20T09:13:17;30.35;;;5.55;;
32295;SDS011;18781;51.550;5.418;2023-12-20T09:15:43;30.60;;;5.82;;
32295;SDS011;18781;51.550;5.418;2023-12-20T09:18:08;28.08;;;5.30;;
32295;SDS011;18781;51.550;5.418;2023-12-20T09:20:34;23.00;;;5.15;;
32295;SDS011;18781;51.550;5.418;2023-12-20T09:23:00;23.50;;;5.43;;
32295;SDS011;18781;51.550;5.418;2023-12-20T09:25:26;27.25;;;4.95;;
32295;SDS011;18781;51.550;5.418;2023-12-20T09:27:52;37.78;;;5.55;;
32295;SDS011;18781;51.550;5.418;2023-12-20T09:30:18;24.52;;;4.97;;
32295;SDS011;18781;51.550;5.418;2023-12-20T09:32:45;35.22;;;5.30;;
32295;SDS011;18781;51.550;5.418;2023-12-20T09:35:11;38.72;;;5.43;;
32295;SDS011;18781;51.550;5.418;2023-12-20T09:37:36;38.03;;;5.97;;
32295;SDS011;18781;51.550;5.418;2023-12-20T09:40:02;29.20;;;6.28;;
32295;SDS011;18781;51.550;5.418;2023-12-20T09:43:14;23.65;;;5.18;;
32295;SDS011;18781;51.550;5.418;2023-12-20T09:45:20;29.85;;;5.50;;
32295;SDS011;18781;51.550;5.418;2023-12-20T09:47:52;25.30;;;5.18;;
32295;SDS011;18781;51.550;5.418;2023-12-20T09:50:19;26.50;;;4.65;;
32295;SDS011;18781;51.550;5.418;2023-12-20T09:52:49;29.65;;;5.10;;
32295;SDS011;18781;51.550;5.418;2023-12-20T09:55:16;32.22;;;5.32;;
32295;SDS011;18781;51.550;5.418;2023-12-20T09:57:44;31.25;;;5.88;;
32295;SDS011;18781;51.550;5.418;2023-12-20T10:00:10;28.13;;;5.72;;
32295;SDS011;18781;51.550;5.418;2023-12-20T10:02:36;30.90;;;5.28;;
32295;SDS011;18781;51.550;5.418;2023-12-20T10:05:06;32.97;;;4.60;;
32295;SDS011;18781;51.550;5.418;2023-12-20T10:07:36;29.98;;;4.63;;
32295;SDS011;18781;51.550;5.418;2023-12-20T10:10:02;30.75;;;4.47;;
32295;SDS011;18781;51.550;5.418;2023-12-20T10:12:29;28.63;;;4.68;;
32295;SDS011;18781;51.550;5.418;2023-12-20T10:14:54;27.02;;;4.43;;
32295;SDS011;18781;51.550;5.418;2023-12-20T10:17:20;28.52;;;4.53;;
32295;SDS011;18781;51.550;5.418;2023-12-20T10:19:46;21.63;;;4.07;;
32295;SDS011;18781;51.550;5.418;2023-12-20T10:22:12;25.05;;;5.47;;
32295;SDS011;18781;51.550;5.418;2023-12-20T10:24:38;29.40;;;4.22;;
32295;SDS011;18781;51.550;5.418;2023-12-20T10:27:05;33.47;;;4.60;;
32295;SDS011;18781;51.550;5.418;2023-12-20T10:29:32;29.65;;;4.82;;
32295;SDS011;18781;51.550;5.418;2023-12-20T10:31:59;31.73;;;5.68;;
32295;SDS011;18781;51.550;5.418;2023-12-20T10:34:25;24.25;;;4.05;;
32295;SDS011;18781;51.550;5.418;2023-12-20T10:36:51;30.50;;;4.55;;
32295;SDS011;18781;51.550;5.418;2023-12-20T10:39:17;23.17;;;5.28;;
32295;SDS011;18781;51.550;5.418;2023-12-20T10:41:45;29.98;;;4.45;;
32295;SDS011;18781;51.550;5.418;2023-12-20T10:44:11;30.60;;;4.07;;
32295;SDS011;18781;51.550;5.418;2023-12-20T10:46:38;28.63;;;4.72;;
32295;SDS011;18781;51.550;5.418;2023-12-20T10:49:05;28.45;;;4.55;;
32295;SDS011;18781;51.550;5.418;2023-12-20T10:51:33;22.75;;;4.22;;
32295;SDS011;18781;51.550;5.418;2023-12-20T10:53:59;27.42;;;5.35;;
32295;SDS011;18781;51.550;5.418;2023-12-20T10:56:25;29.88;;;5.03;;
32295;SDS011;18781;51.550;5.418;2023-12-20T10:58:57;32.08;;;4.47;;
32295;SDS011;18781;51.550;5.418;2023-12-20T11:01:25;22.38;;;4.43;;
32295;SDS011;18781;51.550;5.418;2023-12-20T11:03:54;27.42;;;5.15;;
32295;SDS011;18781;51.550;5.418;2023-12-20T11:11:56;26.58;;;4.50;;
32295;SDS011;18781;51.550;5.418;2023-12-20T11:14:39;26.63;;;4.88;;
32295;SDS011;18781;51.550;5.418;2023-12-20T11:17:27;26.00;;;4.38;;
32295;SDS011;18781;51.550;5.418;2023-12-20T11:22:22;25.30;;;4.78;;
32295;SDS011;18781;51.550;5.418;2023-12-20T11:24:51;28.23;;;4.07;;
32295;SDS011;18781;51.550;5.418;2023-12-20T11:27:18;15.70;;;3.53;;
32295;SDS011;18781;51.550;5.418;2023-12-20T11:29:51;27.25;;;4.65;;
32295;SDS011;18781;51.550;5.418;2023-12-20T11:35:26;27.77;;;4.40;;
32295;SDS011;18781;51.550;5.418;2023-12-20T11:37:45;32.55;;;5.30;;
32295;SDS011;18781;51.550;5.418;2023-12-20T11:40:17;24.00;;;5.30;;
32295;SDS011;18781;51.550;5.418;2023-12-20T11:42:50;27.95;;;3.90;;
32295;SDS011;18781;51.550;5.418;2023-12-20T11:45:18;28.75;;;5.32;;
32295;SDS011;18781;51.550;5.418;2023-12-20T11:47:47;28.88;;;4.68;;
32295;SDS011;18781;51.550;5.418;2023-12-20T11:50:15;18.67;;;3.85;;
32295;SDS011;18781;51.550;5.418;2023-12-20T11:52:41;35.40;;;4.97;;
32295;SDS011;18781;51.550;5.418;2023-12-20T11:55:07;39.88;;;5.55;;
32295;SDS011;18781;51.550;5.418;2023-12-20T11:57:32;29.88;;;4.78;;
32295;SDS011;18781;51.550;5.418;2023-12-20T12:00:00;20.58;;;3.53;;
32295;SDS011;18781;51.550;5.418;2023-12-20T12:02:26;28.92;;;4.30;;
32295;SDS011;18781;51.550;5.418;2023-12-20T12:04:52;26.50;;;4.40;;
32295;SDS011;18781;51.550;5.418;2023-12-20T12:07:17;20.77;;;4.80;;
32295;SDS011;18781;51.550;5.418;2023-12-20T12:09:43;25.15;;;4.03;;
32295;SDS011;18781;51.550;5.418;2023-12-20T12:12:09;29.48;;;4.80;;
32295;SDS011;18781;51.550;5.418;2023-12-20T12:14:37;35.03;;;4.45;;
32295;SDS011;18781;51.550;5.418;2023-12-20T12:17:03;26.33;;;4.70;;
32295;SDS011;18781;51.550;5.418;2023-12-20T12:19:29;25.20;;;3.78;;
32295;SDS011;18781;51.550;5.418;2023-12-20T12:22:15;29.98;;;4.90;;
32295;SDS011;18781;51.550;5.418;2023-12-20T12:27:08;27.77;;;4.22;;
32295;SDS011;18781;51.550;5.418;2023-12-20T12:29:34;31.45;;;4.78;;
32295;SDS011;18781;51.550;5.418;2023-12-20T12:32:01;23.50;;;4.22;;
32295;SDS011;18781;51.550;5.418;2023-12-20T12:34:29;29.20;;;3.85;;
32295;SDS011;18781;51.550;5.418;2023-12-20T12:36:56;23.45;;;4.25;;
32295;SDS011;18781;51.550;5.418;2023-12-20T12:39:23;30.20;;;5.20;;
32295;SDS011;18781;51.550;5.418;2023-12-20T12:41:50;22.67;;;4.10;;
32295;SDS011;18781;51.550;5.418;2023-12-20T12:44:16;27.15;;;4.78;;
32295;SDS011;18781;51.550;5.418;2023-12-20T12:46:42;29.42;;;4.50;;
32295;SDS011;18781;51.550;5.418;2023-12-20T12:49:11;30.58;;;3.97;;
32295;SDS011;18781;51.550;5.418;2023-12-20T12:51:38;31.38;;;4.25;;
32295;SDS011;18781;51.550;5.418;2023-12-20T12:54:03;35.47;;;4.80;;
32295;SDS011;18781;51.550;5.418;2023-12-20T12:56:29;30.35;;;4.20;;
32295;SDS011;18781;51.550;5.418;2023-12-20T12:58:55;21.80;;;4.35;;
32295;SDS011;18781;51.550;5.418;2023-12-20T13:01:21;18.38;;;4.13;;
32295;SDS011;18781;51.550;5.418;2023-12-20T13:03:46;34.35;;;4.55;;
32295;SDS011;18781;51.550;5.418;2023-12-20T13:06:12;29.10;;;4.72;;
32295;SDS011;18781;51.550;5.418;2023-12-20T13:08:38;26.83;;;4.63;;
32295;SDS011;18781;51.550;5.418;2023-12-20T13:11:03;27.17;;;4.38;;
32295;SDS011;18781;51.550;5.418;2023-12-20T13:13:29;32.15;;;4.57;;
32295;SDS011;18781;51.550;5.418;2023-12-20T13:15:56;27.95;;;4.65;;
32295;SDS011;18781;51.550;5.418;2023-12-20T13:18:22;31.92;;;4.43;;
32295;SDS011;18781;51.550;5.418;2023-12-20T13:20:48;23.88;;;4.07;;
32295;SDS011;18781;51.550;5.418;2023-12-20T13:23:14;34.25;;;5.43;;
32295;SDS011;18781;51.550;5.418;2023-12-20T13:25:40;30.25;;;4.90;;
32295;SDS011;18781;51.550;5.418;2023-12-20T13:28:06;30.80;;;3.97;;
32295;SDS011;18781;51.550;5.418;2023-12-20T13:30:33;28.50;;;5.25;;
32295;SDS011;18781;51.550;5.418;2023-12-20T13:32:59;30.73;;;5.03;;
32295;SDS011;18781;51.550;5.418;2023-12-20T13:35:25;21.67;;;5.07;;
32295;SDS011;18781;51.550;5.418;2023-12-20T13:37:50;21.63;;;4.43;;
32295;SDS011;18781;51.550;5.418;2023-12-20T13:40:16;30.70;;;5.13;;
32295;SDS011;18781;51.550;5.418;2023-12-20T13:42:42;22.40;;;4.18;;
32295;SDS011;18781;51.550;5.418;2023-12-20T13:45:08;33.80;;;4.93;;
32295;SDS011;18781;51.550;5.418;2023-12-20T13:47:34;30.80;;;4.78;;
32295;SDS011;18781;51.550;5.418;2023-12-20T13:50:00;19.55;;;3.97;;
32295;SDS011;18781;51.550;5.418;2023-12-20T13:52:26;30.15;;;5.22;;
32295;SDS011;18781;51.550;5.418;2023-12-20T13:54:51;28.15;;;5.50;;
32295;SDS011;18781;51.550;5.418;2023-12-20T13:57:17;29.35;;;4.95;;
32295;SDS011;18781;51.550;5.418;2023-12-20T13:59:43;22.70;;;4.55;;
32295;SDS011;18781;51.550;5.418;2023-12-20T14:02:08;25.38;;;4.95;;
32295;SDS011;18781;51.550;5.418;2023-12-20T14:04:34;31.98;;;6.15;;
32295;SDS011;18781;51.550;5.418;2023-12-20T14:07:00;28.40;;;5.32;;
32295;SDS011;18781;51.550;5.418;2023-12-20T14:09:26;28.33;;;4.95;;
32295;SDS011;18781;51.550;5.418;2023-12-20T14:11:52;27.42;;;4.88;;
32295;SDS011;18781;51.550;5.418;2023-12-20T14:14:18;22.65;;;4.47;;
32295;SDS011;18781;51.550;5.418;2023-12-20T14:16:44;28.02;;;4.93;;
32295;SDS011;18781;51.550;5.418;2023-12-20T14:19:10;28.90;;;4.97;;
32295;SDS011;18781;51.550;5.418;2023-12-20T14:21:36;27.77;;;5.25;;
32295;SDS011;18781;51.550;5.418;2023-12-20T14:24:01;35.38;;;4.97;;
32295;SDS011;18781;51.550;5.418;2023-12-20T14:26:29;27.17;;;5.15;;
32295;SDS011;18781;51.550;5.418;2023-12-20T14:28:55;30.73;;;5.15;;
32295;SDS011;18781;51.550;5.418;2023-12-20T14:31:21;21.98;;;4.70;;
32295;SDS011;18781;51.550;5.418;2023-12-20T14:33:49;26.85;;;5.03;;
32295;SDS011;18781;51.550;5.418;2023-12-20T14:36:15;25.02;;;5.43;;
32295;SDS011;18781;51.550;5.418;2023-12-20T14:38:42;25.63;;;4.65;;
32295;SDS011;18781;51.550;5.418;2023-12-20T14:41:08;29.08;;;5.60;;